Terminal Aerodrome Forecast
Issued by NWS

Home | Current Version | Previous Version | Text Only | Print | Product List | Glossary On
Versions: 1 2 3 4 5 6 7 8 9 10 11 12 13 14 15
480
FTPA31 PHFO 251126
TAFHKO
TAF
PHKO 251126Z 2512/2612 10006KT P6SM VCSH FEW020 SCT035 BKN080
     FM252100 26012KT P6SM VCSH SCT025 BKN080
     FM260300 20007KT P6SM VCSH SCT020 BKN080=

USA.gov is the U.S. government's official web portal to all federal, state and local government web resources and services.